createdAt,value
2022-12-11T00:02:11.732Z,21.60
2022-12-11T00:04:39.861Z,22.67
2022-12-11T00:07:08.019Z,26.00
2022-12-11T00:09:36.171Z,22.13
2022-12-11T00:12:05.205Z,22.57
2022-12-11T00:14:34.758Z,22.30
2022-12-11T00:17:02.976Z,22.93
2022-12-11T00:19:31.185Z,20.40
2022-12-11T00:21:59.309Z,21.10
2022-12-11T00:24:27.509Z,21.67
2022-12-11T00:26:55.648Z,20.40
2022-12-11T00:29:23.821Z,19.60
2022-12-11T00:31:53.368Z,19.27
2022-12-11T00:34:21.637Z,19.50
2022-12-11T00:36:49.738Z,19.50
2022-12-11T00:39:17.933Z,19.70
2022-12-11T00:41:46.151Z,20.47
2022-12-11T00:44:14.341Z,22.73
2022-12-11T00:46:42.495Z,20.40
2022-12-11T00:49:11.959Z,20.03
2022-12-11T00:51:40.126Z,23.43
2022-12-11T00:54:08.307Z,21.20
2022-12-11T00:56:36.451Z,21.37
2022-12-11T00:59:04.637Z,24.43
2022-12-11T01:01:33.468Z,23.53
2022-12-11T01:04:01.692Z,22.67
2022-12-11T01:06:31.289Z,21.50
2022-12-11T01:09:27.157Z,25.90
2022-12-11T01:11:55.579Z,23.30
2022-12-11T01:14:23.737Z,24.57
2022-12-11T01:16:51.855Z,23.47
2022-12-11T01:19:20.061Z,23.73
2022-12-11T01:21:49.517Z,23.20
2022-12-11T01:24:17.690Z,20.97
2022-12-11T01:26:45.866Z,22.90
2022-12-11T01:29:14.067Z,21.90
2022-12-11T01:31:42.207Z,23.20
2022-12-11T01:34:10.393Z,26.47
2022-12-11T01:36:38.501Z,24.27
2022-12-11T01:39:08.012Z,23.97
2022-12-11T01:41:36.189Z,23.77
2022-12-11T01:44:06.502Z,25.17
2022-12-11T01:46:35.268Z,25.60
2022-12-11T01:49:05.430Z,26.60
2022-12-11T01:51:35.273Z,29.17
2022-12-11T01:54:06.087Z,27.87
2022-12-11T01:56:37.062Z,28.37
2022-12-11T01:59:07.354Z,29.60
2022-12-11T02:01:36.889Z,29.23
2022-12-11T02:04:05.263Z,27.03
2022-12-11T02:06:34.813Z,27.43
2022-12-11T02:09:03.335Z,34.60
2022-12-11T02:11:34.670Z,29.83
2022-12-11T02:14:06.990Z,27.33
2022-12-11T02:16:39.504Z,31.60
2022-12-11T02:19:16.702Z,35.13
2022-12-11T02:21:47.999Z,28.27
2022-12-11T02:24:25.388Z,29.67
2022-12-11T02:27:00.185Z,30.90
2022-12-11T02:29:32.387Z,31.27
2022-12-11T02:32:01.643Z,31.80
2022-12-11T02:34:32.405Z,33.93
2022-12-11T02:37:02.448Z,32.40
2022-12-11T02:39:31.188Z,33.57
2022-12-11T02:42:00.308Z,34.93
2022-12-11T02:44:32.119Z,35.63
2022-12-11T02:47:00.908Z,31.53
2022-12-11T02:49:29.827Z,31.17
2022-12-11T02:51:58.581Z,32.07
2022-12-11T02:54:29.402Z,28.73
2022-12-11T02:57:02.050Z,30.00
2022-12-11T02:59:32.784Z,28.57
2022-12-11T03:02:01.013Z,28.37
2022-12-11T03:04:29.915Z,30.50
2022-12-11T03:07:00.146Z,33.50
2022-12-11T03:09:28.877Z,34.70
2022-12-11T03:11:57.023Z,31.00
2022-12-11T03:14:25.241Z,29.17
2022-12-11T03:16:57.661Z,32.97
2022-12-11T03:19:29.568Z,29.13
2022-12-11T03:22:01.581Z,32.40
2022-12-11T03:24:31.969Z,29.03
2022-12-11T03:27:02.807Z,32.17
2022-12-11T03:29:36.550Z,30.93
2022-12-11T03:32:08.631Z,29.03
2022-12-11T03:34:40.431Z,31.10
2022-12-11T03:37:09.338Z,27.00
2022-12-11T03:39:39.818Z,29.37
2022-12-11T03:42:09.680Z,25.73
2022-12-11T03:44:38.509Z,24.93
2022-12-11T03:47:08.977Z,24.97
2022-12-11T03:49:38.542Z,22.93
2022-12-11T03:52:08.860Z,21.63
2022-12-11T03:54:37.187Z,24.13
2022-12-11T03:57:06.509Z,22.20
2022-12-11T03:59:34.698Z,23.70
2022-12-11T04:02:10.628Z,22.73
2022-12-11T04:04:40.651Z,20.90
2022-12-11T04:07:08.987Z,20.93
2022-12-11T04:09:37.364Z,21.17
2022-12-11T04:12:05.581Z,20.53
2022-12-11T04:14:51.523Z,19.67
2022-12-11T04:17:33.673Z,20.33
2022-12-11T04:20:20.818Z,20.80
2022-12-11T04:23:06.603Z,20.33
2022-12-11T04:25:34.783Z,20.97
2022-12-11T04:28:02.952Z,20.47
2022-12-11T04:30:34.281Z,20.80
2022-12-11T04:33:02.722Z,21.27
2022-12-11T04:35:32.267Z,21.33
2022-12-11T04:38:01.174Z,20.07
2022-12-11T04:40:29.305Z,23.00
2022-12-11T04:42:57.452Z,20.70
2022-12-11T04:45:25.553Z,20.37
2022-12-11T04:47:53.792Z,19.70
2022-12-11T04:50:21.935Z,19.90
2022-12-11T04:52:51.470Z,19.83
2022-12-11T04:55:19.787Z,17.93
2022-12-11T04:57:47.939Z,18.17
2022-12-11T05:00:17.245Z,18.20
2022-12-11T05:02:45.458Z,18.87
2022-12-11T05:05:14.302Z,19.90
2022-12-11T05:07:42.820Z,18.07
2022-12-11T05:10:12.512Z,18.47
2022-12-11T05:12:40.771Z,18.50
2022-12-11T05:15:09.754Z,19.50
2022-12-11T05:17:38.186Z,20.23
2022-12-11T05:20:06.694Z,17.80
2022-12-11T05:22:34.872Z,17.87
2022-12-11T05:25:03.330Z,18.73
2022-12-11T05:27:32.898Z,17.80
2022-12-11T05:30:01.070Z,18.47
2022-12-11T05:32:29.179Z,18.43
2022-12-11T05:34:57.376Z,19.73
2022-12-11T05:37:25.541Z,19.93
2022-12-11T05:39:53.718Z,17.97
2022-12-11T05:42:25.505Z,18.47
2022-12-11T05:44:58.208Z,18.83
2022-12-11T05:47:26.596Z,19.53
2022-12-11T05:49:54.757Z,19.53
2022-12-11T05:52:22.916Z,18.50
2022-12-11T05:54:51.217Z,19.17
2022-12-11T05:57:19.434Z,18.43
2022-12-11T05:59:47.602Z,17.60
2022-12-11T06:02:17.188Z,19.20
2022-12-11T06:04:45.393Z,17.47
2022-12-11T06:07:13.620Z,21.67
2022-12-11T06:09:41.746Z,19.83
2022-12-11T06:12:09.873Z,20.47
2022-12-11T06:14:38.081Z,18.40
2022-12-11T06:17:06.250Z,19.33
2022-12-11T06:19:37.088Z,21.33
2022-12-11T06:22:05.428Z,17.97
2022-12-11T06:24:33.532Z,19.77
2022-12-11T06:27:01.675Z,19.57
2022-12-11T06:29:29.833Z,21.50
2022-12-11T06:31:58.084Z,20.20
2022-12-11T06:34:26.286Z,20.50
2022-12-11T06:36:55.839Z,22.17
2022-12-11T06:39:24.024Z,20.60
2022-12-11T06:41:52.162Z,19.23
2022-12-11T06:44:20.328Z,20.37
2022-12-11T06:46:48.494Z,19.03
2022-12-11T06:49:16.657Z,19.70
2022-12-11T06:51:44.854Z,21.83
2022-12-11T06:54:14.378Z,22.83
2022-12-11T06:56:42.562Z,20.60
2022-12-11T06:59:12.953Z,20.23
2022-12-11T07:01:41.811Z,21.30
2022-12-11T07:04:10.842Z,22.47
2022-12-11T07:06:39.028Z,19.97
2022-12-11T07:09:07.680Z,21.03
2022-12-11T07:11:37.284Z,19.03
2022-12-11T07:14:05.395Z,22.40
2022-12-11T07:16:33.556Z,23.80
2022-12-11T07:19:02.165Z,21.67
2022-12-11T07:21:30.366Z,19.83
2022-12-11T07:23:58.653Z,19.83
2022-12-11T07:26:26.787Z,18.77
2022-12-11T07:28:58.180Z,19.23
2022-12-11T07:31:27.379Z,20.43
2022-12-11T07:33:55.851Z,20.43
2022-12-11T07:36:24.373Z,21.73
2022-12-11T07:38:52.957Z,20.93
2022-12-11T07:41:21.230Z,18.30
2022-12-11T07:43:49.384Z,19.87
2022-12-11T07:46:20.654Z,19.60
2022-12-11T07:48:49.350Z,16.10
2022-12-11T07:51:18.814Z,18.33
2022-12-11T07:53:47.427Z,17.27
2022-12-11T07:56:15.578Z,15.77
2022-12-11T07:58:43.748Z,14.50
2022-12-11T08:01:13.517Z,12.43
2022-12-11T08:03:43.290Z,14.77
2022-12-11T08:06:11.523Z,15.13
2022-12-11T08:08:39.804Z,15.97
2022-12-11T08:11:08.909Z,16.87
2022-12-11T08:13:37.294Z,15.50
2022-12-11T08:16:05.677Z,15.93
2022-12-11T08:18:34.615Z,14.63
2022-12-11T08:21:07.561Z,15.70
2022-12-11T08:23:36.186Z,14.87
2022-12-11T08:26:05.054Z,14.70
2022-12-11T08:28:33.531Z,15.57
2022-12-11T08:31:01.771Z,14.67
2022-12-11T08:33:29.997Z,15.43
2022-12-11T08:35:58.580Z,16.13
2022-12-11T08:38:28.082Z,13.97
2022-12-11T08:40:56.220Z,13.87
2022-12-11T08:43:24.431Z,17.83
2022-12-11T08:45:52.640Z,17.70
2022-12-11T08:48:20.846Z,18.03
2022-12-11T08:50:48.960Z,17.70
2022-12-11T08:53:17.067Z,16.93
2022-12-11T08:55:46.569Z,16.97
2022-12-11T08:58:14.680Z,17.23
2022-12-11T09:00:42.814Z,20.83
2022-12-11T09:03:12.974Z,21.33
2022-12-11T09:05:41.438Z,21.90
2022-12-11T09:08:09.631Z,24.57
2022-12-11T09:10:37.879Z,23.97
2022-12-11T09:13:07.416Z,21.27
2022-12-11T09:15:36.129Z,24.57
2022-12-11T09:18:04.478Z,22.73
2022-12-11T09:20:32.672Z,24.33
2022-12-11T09:23:00.811Z,24.77
2022-12-11T09:25:29.009Z,27.77
2022-12-11T09:27:57.156Z,25.70
2022-12-11T09:30:26.676Z,26.40
2022-12-11T09:32:54.815Z,26.07
2022-12-11T09:35:22.969Z,25.47
2022-12-11T09:37:51.202Z,26.33
2022-12-11T09:40:19.671Z,25.20
2022-12-11T09:42:54.729Z,25.77
2022-12-11T09:45:22.955Z,24.53
2022-12-11T09:47:54.332Z,23.70
2022-12-11T09:50:24.162Z,29.93
2022-12-11T09:52:59.495Z,25.53
2022-12-11T09:55:31.515Z,26.37
2022-12-11T09:58:03.347Z,24.13
2022-12-11T10:00:34.184Z,24.97
2022-12-11T10:03:10.144Z,26.27
2022-12-11T10:05:44.202Z,25.70
2022-12-11T10:08:16.621Z,25.03
2022-12-11T10:10:45.956Z,25.57
2022-12-11T10:13:18.519Z,23.10
2022-12-11T10:15:51.191Z,25.03
2022-12-11T10:18:22.874Z,25.10
2022-12-11T10:20:52.730Z,23.83
2022-12-11T10:23:22.845Z,24.17
2022-12-11T10:25:52.970Z,23.37
2022-12-11T10:28:21.815Z,24.10
2022-12-11T10:30:52.855Z,28.13
2022-12-11T10:33:24.018Z,30.17
2022-12-11T10:35:53.148Z,27.77
2022-12-11T10:38:27.438Z,22.90
2022-12-11T10:40:57.046Z,29.90
2022-12-11T10:43:33.999Z,29.90
2022-12-11T10:46:02.245Z,27.47
2022-12-11T10:48:31.810Z,27.07
2022-12-11T10:51:01.757Z,28.60
2022-12-11T10:53:30.281Z,30.90
2022-12-11T10:55:58.980Z,30.33
2022-12-11T10:58:28.370Z,30.53
2022-12-11T11:01:06.567Z,29.23
2022-12-11T11:03:36.848Z,29.80
2022-12-11T11:06:06.381Z,31.40
2022-12-11T11:08:41.860Z,31.03
2022-12-11T11:11:21.680Z,32.93
2022-12-11T11:13:50.037Z,33.40
2022-12-11T11:16:19.218Z,29.83
2022-12-11T11:18:53.987Z,31.77
2022-12-11T11:21:23.199Z,34.73
2022-12-11T11:23:53.693Z,29.03
2022-12-11T11:26:22.661Z,30.07
2022-12-11T11:28:52.929Z,30.77
2022-12-11T11:31:22.250Z,32.90
2022-12-11T11:33:56.332Z,32.57
2022-12-11T11:36:25.621Z,28.57
2022-12-11T11:39:02.189Z,30.77
2022-12-11T11:41:33.430Z,31.37
2022-12-11T11:44:04.726Z,30.53
2022-12-11T11:46:36.561Z,31.30
2022-12-11T11:49:10.006Z,36.73
2022-12-11T11:51:40.613Z,28.10
2022-12-11T11:54:13.671Z,29.93
2022-12-11T11:56:41.778Z,30.23
2022-12-11T11:59:15.862Z,30.67
2022-12-11T12:01:44.111Z,27.33
2022-12-11T12:04:13.909Z,28.77
2022-12-11T12:06:54.805Z,30.40
2022-12-11T12:09:33.745Z,29.53
2022-12-11T12:12:13.023Z,31.37
2022-12-11T12:14:52.419Z,29.47
2022-12-11T12:17:26.398Z,27.57
2022-12-11T12:20:01.382Z,31.97
2022-12-11T12:22:34.013Z,31.10
2022-12-11T12:25:07.481Z,29.47
2022-12-11T12:27:55.543Z,28.67
2022-12-11T12:30:24.294Z,28.20
2022-12-11T12:33:06.065Z,27.80
2022-12-11T12:35:37.527Z,29.57
2022-12-11T12:38:08.647Z,28.00
2022-12-11T12:40:39.340Z,26.73
2022-12-11T12:43:12.301Z,28.83
2022-12-11T12:45:46.210Z,29.70
2022-12-11T12:48:14.473Z,25.87
2022-12-11T12:50:44.675Z,30.67
2022-12-11T12:53:15.899Z,28.50
2022-12-11T12:55:44.699Z,26.37
2022-12-11T12:58:26.018Z,27.17
2022-12-11T13:00:54.783Z,31.10
2022-12-11T13:03:26.800Z,26.53
2022-12-11T13:06:01.067Z,28.60
2022-12-11T13:08:30.715Z,30.23
2022-12-11T13:11:02.197Z,29.83
2022-12-11T13:13:36.468Z,30.43
2022-12-11T13:16:08.293Z,26.87
2022-12-11T13:18:37.882Z,26.90
2022-12-11T13:21:20.981Z,29.00
2022-12-11T13:23:50.513Z,27.83
2022-12-11T13:26:29.074Z,26.53
2022-12-11T13:28:58.200Z,30.20
2022-12-11T13:31:34.855Z,27.97
2022-12-11T13:34:09.051Z,26.30
2022-12-11T13:36:38.161Z,26.07
2022-12-11T13:39:12.378Z,24.67
2022-12-11T13:41:40.653Z,25.50
2022-12-11T13:44:08.974Z,27.30
2022-12-11T13:46:38.400Z,23.43
2022-12-11T13:49:07.548Z,23.07
2022-12-11T13:51:37.013Z,20.40
2022-12-11T13:54:17.248Z,23.10
2022-12-11T13:56:55.425Z,16.90
2022-12-11T13:59:25.951Z,18.87
2022-12-11T14:01:55.755Z,18.90
2022-12-11T14:04:24.378Z,22.37
2022-12-11T14:06:52.617Z,21.60
2022-12-11T14:09:24.441Z,22.17
2022-12-11T14:11:56.943Z,26.27
2022-12-11T14:14:26.973Z,27.00
2022-12-11T14:16:55.388Z,26.03
2022-12-11T14:19:24.823Z,22.60
2022-12-11T14:22:00.616Z,25.90
2022-12-11T14:24:30.869Z,20.90
2022-12-11T14:26:59.501Z,24.73
2022-12-11T14:29:29.629Z,20.63
2022-12-11T14:31:58.800Z,24.17
2022-12-11T14:34:28.164Z,23.87
2022-12-11T14:36:57.092Z,25.93
2022-12-11T14:39:28.714Z,25.17
2022-12-11T14:41:59.964Z,23.43
2022-12-11T14:44:30.342Z,22.30
2022-12-11T14:47:02.053Z,24.40
2022-12-11T14:49:33.800Z,22.37
2022-12-11T14:52:02.409Z,20.53
2022-12-11T14:54:33.278Z,21.43
2022-12-11T14:57:06.216Z,20.63
2022-12-11T14:59:36.258Z,21.43
2022-12-11T15:02:06.175Z,22.30
2022-12-11T15:04:35.040Z,23.10
2022-12-11T15:07:03.247Z,25.73
2022-12-11T15:09:38.309Z,23.93
2022-12-11T15:12:12.952Z,24.43
2022-12-11T15:14:43.286Z,22.20
2022-12-11T15:17:15.077Z,24.83
2022-12-11T15:19:43.536Z,26.53
2022-12-11T15:22:15.967Z,23.97
2022-12-11T15:24:46.355Z,24.03
2022-12-11T15:27:24.535Z,21.03
2022-12-11T15:29:52.901Z,21.03
2022-12-11T15:32:21.741Z,23.83
2022-12-11T15:34:50.813Z,23.00
2022-12-11T15:37:19.577Z,20.33
2022-12-11T15:39:49.406Z,21.00
2022-12-11T15:42:21.006Z,23.20
2022-12-11T15:44:49.328Z,20.40
2022-12-11T15:47:20.314Z,21.53
2022-12-11T15:49:48.562Z,21.33
2022-12-11T15:52:16.793Z,18.47
2022-12-11T15:54:44.948Z,18.23
2022-12-11T15:57:15.961Z,19.83
2022-12-11T15:59:45.768Z,19.30
2022-12-11T16:02:14.493Z,18.47
2022-12-11T16:04:42.828Z,18.77
2022-12-11T16:07:16.871Z,21.40
2022-12-11T16:09:45.397Z,18.97
2022-12-11T16:12:14.280Z,18.87
2022-12-11T16:14:42.477Z,18.60
2022-12-11T16:17:12.732Z,19.67
2022-12-11T16:19:41.363Z,20.10
2022-12-11T16:22:09.912Z,17.83
2022-12-11T16:24:38.369Z,20.00
2022-12-11T16:27:07.175Z,22.70
2022-12-11T16:29:35.909Z,22.73
2022-12-11T16:32:04.103Z,21.10
2022-12-11T16:34:33.560Z,22.20
2022-12-11T16:37:01.785Z,23.40
2022-12-11T16:39:30.110Z,23.23
2022-12-11T16:41:58.242Z,22.80
2022-12-11T16:44:27.239Z,19.77
2022-12-11T16:46:55.772Z,17.17
2022-12-11T16:49:24.048Z,18.87
2022-12-11T16:51:53.583Z,21.83
2022-12-11T16:54:21.803Z,18.47
2022-12-11T16:56:49.913Z,16.07
2022-12-11T16:59:18.009Z,16.70
2022-12-11T17:01:46.225Z,17.23
2022-12-11T17:04:14.373Z,15.63
2022-12-11T17:06:42.533Z,15.90
2022-12-11T17:09:11.995Z,15.23
2022-12-11T17:11:40.185Z,13.27
2022-12-11T17:14:08.350Z,12.73
2022-12-11T17:16:36.492Z,15.33
2022-12-11T17:19:07.277Z,15.00
2022-12-11T17:21:35.493Z,15.00
2022-12-11T17:24:03.615Z,13.57
2022-12-11T17:26:33.094Z,14.23
2022-12-11T17:29:01.689Z,15.57
2022-12-11T17:31:29.985Z,17.30
2022-12-11T17:34:00.571Z,18.70
2022-12-11T17:36:29.179Z,21.20
2022-12-11T17:38:57.358Z,20.60
2022-12-11T17:41:25.502Z,24.93
2022-12-11T17:43:57.093Z,25.40
2022-12-11T17:46:25.385Z,26.23
2022-12-11T17:48:53.514Z,24.87
2022-12-11T17:51:23.912Z,23.57
2022-12-11T17:53:52.762Z,25.00
2022-12-11T17:56:20.932Z,25.73
2022-12-11T17:58:49.141Z,26.23
2022-12-11T18:01:19.105Z,25.83
2022-12-11T18:03:47.846Z,26.63
2022-12-11T18:06:16.851Z,24.73
2022-12-11T18:08:46.177Z,23.33
2022-12-11T18:11:15.246Z,27.73
2022-12-11T18:13:43.896Z,23.93
2022-12-11T18:16:14.105Z,23.97
2022-12-11T18:18:43.637Z,27.73
2022-12-11T18:21:13.936Z,30.33
2022-12-11T18:23:42.170Z,30.63
2022-12-11T18:26:11.090Z,32.97
2022-12-11T18:28:39.198Z,30.53
2022-12-11T18:31:07.695Z,28.97
2022-12-11T18:33:37.078Z,29.37
2022-12-11T18:36:07.101Z,29.47
2022-12-11T18:38:35.361Z,29.67
2022-12-11T18:41:04.322Z,29.17
2022-12-11T18:43:32.482Z,30.20
2022-12-11T18:46:00.719Z,30.33
2022-12-11T18:48:28.913Z,31.23
2022-12-11T18:50:57.062Z,30.07
2022-12-11T18:53:26.633Z,30.53
2022-12-11T18:56:00.193Z,30.37
2022-12-11T18:58:28.775Z,30.93
2022-12-11T19:00:56.956Z,29.33
2022-12-11T19:03:25.170Z,28.83
2022-12-11T19:05:53.335Z,31.10
2022-12-11T19:08:22.035Z,27.20
2022-12-11T19:10:51.633Z,32.30
2022-12-11T19:13:19.765Z,30.03
2022-12-11T19:15:47.969Z,27.57
2022-12-11T19:18:16.093Z,25.73
2022-12-11T19:21:08.462Z,29.83
2022-12-11T19:23:32.680Z,28.73
2022-12-11T19:26:02.425Z,27.30
2022-12-11T19:28:30.571Z,25.23
2022-12-11T19:30:59.228Z,25.67
2022-12-11T19:33:27.521Z,28.53
2022-12-11T19:36:02.200Z,28.70
2022-12-11T19:38:30.429Z,30.23
2022-12-11T19:40:58.628Z,27.87
2022-12-11T19:43:28.440Z,26.93
2022-12-11T19:45:56.581Z,25.50
2022-12-11T19:48:24.779Z,30.13
2022-12-11T19:50:52.962Z,25.03
2022-12-11T19:53:21.136Z,29.97
2022-12-11T19:55:51.674Z,29.97
2022-12-11T19:58:20.051Z,25.73
2022-12-11T20:00:49.636Z,31.37
2022-12-11T20:03:17.894Z,30.17
2022-12-11T20:05:46.039Z,27.87
2022-12-11T20:08:42.844Z,29.20
2022-12-11T20:11:04.623Z,25.27
2022-12-11T20:13:32.907Z,27.13
2022-12-11T20:16:02.744Z,29.17
2022-12-11T20:18:30.926Z,25.97
2022-12-11T20:21:01.337Z,28.20
2022-12-11T20:23:29.579Z,26.97
2022-12-11T20:25:59.130Z,32.00
2022-12-11T20:28:27.476Z,29.00
2022-12-11T20:30:55.647Z,25.87
2022-12-11T20:33:25.087Z,28.70
2022-12-11T20:35:53.218Z,26.00
2022-12-11T20:38:22.003Z,26.40
2022-12-11T20:40:50.179Z,29.00
2022-12-11T20:43:18.382Z,25.57
2022-12-11T20:45:48.661Z,30.57
2022-12-11T20:48:17.000Z,26.30
2022-12-11T20:50:46.486Z,26.17
2022-12-11T20:53:14.657Z,26.63
2022-12-11T20:55:43.473Z,26.27
2022-12-11T20:58:11.973Z,26.97
2022-12-11T21:00:41.009Z,28.67
2022-12-11T21:03:09.196Z,27.33
2022-12-11T21:05:41.738Z,27.53
2022-12-11T21:08:11.304Z,26.63
2022-12-11T21:10:42.820Z,26.07
2022-12-11T21:13:11.141Z,29.07
2022-12-11T21:15:39.681Z,26.73
2022-12-11T21:18:07.971Z,30.83
2022-12-11T21:20:36.697Z,28.00
2022-12-11T21:23:05.150Z,25.70
2022-12-11T21:25:34.600Z,27.03
2022-12-11T21:28:03.227Z,27.70
2022-12-11T21:30:31.418Z,27.20
2022-12-11T21:33:00.834Z,27.10
2022-12-11T21:35:29.061Z,26.97
2022-12-11T21:37:57.276Z,28.93
2022-12-11T21:40:25.465Z,28.80
2022-12-11T21:42:55.045Z,27.87
2022-12-11T21:45:59.190Z,28.57
2022-12-11T21:48:11.353Z,30.33
2022-12-11T21:50:39.515Z,26.63
2022-12-11T21:53:07.882Z,30.93
2022-12-11T21:55:36.077Z,28.70
2022-12-11T21:58:05.626Z,27.97
2022-12-11T22:00:33.768Z,29.93
2022-12-11T22:03:01.925Z,29.37
2022-12-11T22:05:31.271Z,28.93
2022-12-11T22:07:59.495Z,30.97
2022-12-11T22:10:27.829Z,29.83
2022-12-11T22:12:55.953Z,29.87
2022-12-11T22:15:25.472Z,29.03
2022-12-11T22:17:53.615Z,27.27
2022-12-11T22:20:21.775Z,30.80
2022-12-11T22:22:49.928Z,30.27
2022-12-11T22:25:18.176Z,28.53
2022-12-11T22:27:46.336Z,27.37
2022-12-11T22:30:14.868Z,30.07
2022-12-11T22:32:45.219Z,28.23
2022-12-11T22:35:13.620Z,29.17
2022-12-11T22:37:42.105Z,28.73
2022-12-11T22:40:10.536Z,31.00
2022-12-11T22:42:38.738Z,31.23
2022-12-11T22:45:07.746Z,33.03
2022-12-11T22:47:35.869Z,30.07
2022-12-11T22:50:05.569Z,26.73
2022-12-11T22:52:33.662Z,31.00
2022-12-11T22:55:02.321Z,29.07
2022-12-11T22:57:30.542Z,28.00
2022-12-11T22:59:58.762Z,28.10
2022-12-11T23:02:26.928Z,29.63
2022-12-11T23:04:55.147Z,29.23
2022-12-11T23:07:24.723Z,27.40
2022-12-11T23:09:52.936Z,27.23
2022-12-11T23:12:21.076Z,27.00
2022-12-11T23:14:49.503Z,26.70
2022-12-11T23:17:17.629Z,27.50
2022-12-11T23:19:46.682Z,26.33
2022-12-11T23:22:14.943Z,26.87
2022-12-11T23:24:44.469Z,27.00
2022-12-11T23:27:12.869Z,24.20
2022-12-11T23:29:41.397Z,28.00
2022-12-11T23:32:09.562Z,24.80
2022-12-11T23:34:37.715Z,24.83
2022-12-11T23:37:05.862Z,25.70
2022-12-11T23:39:34.082Z,25.63
2022-12-11T23:42:03.944Z,26.63
2022-12-11T23:44:32.113Z,25.83
2022-12-11T23:47:00.501Z,26.77
2022-12-11T23:49:28.665Z,26.93
2022-12-11T23:51:57.036Z,27.03
2022-12-11T23:54:25.211Z,24.90
2022-12-11T23:56:53.416Z,27.83
2022-12-11T23:59:22.889Z,25.30
